createdAt,value
2018-09-13T00:00:03.499Z,15.98
2018-09-13T00:02:31.878Z,15.68
2018-09-13T00:05:00.258Z,16.27
2018-09-13T00:07:28.624Z,14.03
2018-09-13T00:09:57.083Z,15.98
2018-09-13T00:12:26.594Z,14.25
2018-09-13T00:14:55.002Z,15.50
2018-09-13T00:17:23.564Z,17.75
2018-09-13T00:19:51.951Z,15.58
2018-09-13T00:22:20.315Z,15.18
2018-09-13T00:24:48.770Z,18.77
2018-09-13T00:27:17.234Z,17.05
2018-09-13T00:29:45.777Z,15.72
2018-09-13T00:32:14.171Z,15.50
2018-09-13T00:34:42.556Z,16.23
2018-09-13T00:37:10.922Z,15.35
2018-09-13T00:39:39.398Z,13.18
2018-09-13T00:42:07.766Z,15.30
2018-09-13T00:44:36.254Z,14.80
2018-09-13T00:47:08.856Z,15.28
2018-09-13T00:49:37.263Z,15.83
2018-09-13T00:52:05.641Z,14.33
2018-09-13T00:54:34.002Z,14.65
2018-09-13T00:57:02.417Z,13.50
2018-09-13T00:59:30.906Z,13.68
2018-09-13T01:01:59.295Z,15.30
2018-09-13T01:04:27.658Z,13.58
2018-09-13T01:06:56.018Z,15.90
2018-09-13T01:09:24.379Z,17.42
2018-09-13T01:11:52.750Z,16.50
2018-09-13T01:14:21.154Z,14.05
2018-09-13T01:16:49.486Z,14.73
2018-09-13T01:19:17.879Z,15.93
2018-09-13T01:21:46.295Z,15.58
2018-09-13T01:24:14.673Z,16.65
2018-09-13T01:26:43.090Z,16.12
2018-09-13T01:29:11.478Z,14.05
2018-09-13T01:31:39.932Z,17.32
2018-09-13T01:34:08.319Z,13.95
2018-09-13T01:36:36.714Z,13.75
2018-09-13T01:39:07.622Z,16.10
2018-09-13T01:41:36.023Z,14.53
2018-09-13T01:44:04.403Z,13.90
2018-09-13T01:46:32.826Z,14.58
2018-09-13T01:49:01.223Z,14.87
2018-09-13T01:51:29.589Z,14.95
2018-09-13T01:53:57.954Z,15.93
2018-09-13T01:56:26.318Z,12.65
2018-09-13T01:58:54.767Z,14.63
2018-09-13T02:01:23.150Z,16.00
2018-09-13T02:03:51.506Z,12.95
2018-09-13T02:06:19.870Z,14.90
2018-09-13T02:08:48.312Z,16.23
2018-09-13T02:11:16.783Z,16.05
2018-09-13T02:13:45.270Z,19.05
2018-09-13T02:16:13.683Z,15.60
2018-09-13T02:18:42.066Z,14.50
2018-09-13T02:21:10.406Z,15.35
2018-09-13T02:23:38.798Z,15.83
2018-09-13T02:26:07.158Z,12.47
2018-09-13T02:28:35.579Z,14.15
2018-09-13T02:31:03.945Z,13.58
2018-09-13T02:33:32.342Z,13.65
2018-09-13T02:36:00.678Z,15.72
2018-09-13T02:38:29.043Z,15.85
2018-09-13T02:40:57.418Z,14.55
2018-09-13T02:43:25.814Z,12.50
2018-09-13T02:45:54.217Z,14.58
2018-09-13T02:48:22.618Z,11.18
2018-09-13T02:50:51.010Z,13.90
2018-09-13T02:53:19.591Z,13.93
2018-09-13T02:55:48.030Z,13.25
2018-09-13T02:58:16.413Z,14.33
2018-09-13T03:00:44.877Z,15.47
2018-09-13T03:03:13.283Z,13.10
2018-09-13T03:05:41.651Z,13.70
2018-09-13T03:08:10.149Z,13.95
2018-09-13T03:10:38.427Z,13.03
2018-09-13T03:13:06.907Z,15.30
2018-09-13T03:15:35.262Z,14.87
2018-09-13T03:18:03.666Z,13.80
2018-09-13T03:20:32.103Z,15.30
2018-09-13T03:23:00.510Z,17.33
2018-09-13T03:25:28.898Z,13.53
2018-09-13T03:27:57.338Z,13.88
2018-09-13T03:30:25.719Z,11.93
2018-09-13T03:32:54.126Z,13.30
2018-09-13T03:35:22.501Z,14.60
2018-09-13T03:37:50.902Z,13.10
2018-09-13T03:40:19.274Z,13.50
2018-09-13T03:42:47.654Z,16.63
2018-09-13T03:45:16.075Z,16.53
2018-09-13T03:47:44.472Z,15.48
2018-09-13T03:50:12.848Z,11.57
2018-09-13T03:52:41.278Z,13.03
2018-09-13T03:55:09.710Z,13.13
2018-09-13T03:57:38.074Z,13.33
2018-09-13T04:00:07.090Z,13.50
2018-09-13T04:02:35.448Z,14.63
2018-09-13T04:05:03.902Z,12.63
2018-09-13T04:07:32.257Z,15.15
2018-09-13T04:10:00.618Z,15.32
2018-09-13T04:12:28.970Z,12.23
2018-09-13T04:14:57.505Z,11.90
2018-09-13T04:17:25.858Z,13.23
2018-09-13T04:19:54.393Z,15.63
2018-09-13T04:22:22.879Z,14.50
2018-09-13T04:24:51.291Z,13.20
2018-09-13T04:27:19.967Z,17.73
2018-09-13T04:29:48.433Z,13.63
2018-09-13T04:32:17.031Z,13.95
2018-09-13T04:34:45.513Z,11.70
2018-09-13T04:37:14.015Z,13.93
2018-09-13T04:39:42.471Z,11.10
2018-09-13T04:42:10.913Z,11.00
2018-09-13T04:44:39.331Z,11.33
2018-09-13T04:47:07.734Z,13.17
2018-09-13T04:49:36.186Z,13.47
2018-09-13T04:52:04.674Z,9.30
2018-09-13T04:54:33.088Z,11.63
2018-09-13T04:57:02.105Z,10.90
2018-09-13T04:59:30.591Z,13.70
2018-09-13T05:01:59.616Z,13.80
2018-09-13T05:04:28.063Z,13.45
2018-09-13T05:06:56.618Z,10.90
2018-09-13T05:09:25.101Z,12.63
2018-09-13T05:11:53.704Z,12.97
2018-09-13T05:14:22.615Z,13.33
2018-09-13T05:16:51.088Z,14.03
2018-09-13T05:19:19.579Z,12.43
2018-09-13T05:21:47.983Z,11.57
2018-09-13T05:24:16.711Z,10.90
2018-09-13T05:26:45.222Z,10.17
2018-09-13T05:29:13.816Z,12.43
2018-09-13T05:31:42.297Z,11.97
2018-09-13T05:34:11.202Z,11.60
2018-09-13T05:36:39.629Z,11.50
2018-09-13T05:39:11.961Z,12.50
2018-09-13T05:41:40.973Z,12.43
2018-09-13T05:44:09.418Z,12.63
2018-09-13T05:46:38.098Z,11.63
2018-09-13T05:49:06.550Z,13.17
2018-09-13T05:51:35.003Z,10.60
2018-09-13T05:54:03.560Z,13.63
2018-09-13T05:56:31.960Z,11.90
2018-09-13T05:59:00.390Z,12.30
2018-09-13T06:01:29.288Z,12.17
2018-09-13T06:03:57.978Z,9.95
2018-09-13T06:06:26.402Z,12.58
2018-09-13T06:08:54.821Z,11.63
2018-09-13T06:11:23.284Z,12.00
2018-09-13T06:13:51.803Z,13.07
2018-09-13T06:16:20.243Z,11.75
2018-09-13T06:18:48.790Z,9.68
2018-09-13T06:21:17.264Z,15.40
2018-09-13T06:23:45.970Z,9.23
2018-09-13T06:26:14.834Z,11.63
2018-09-13T06:28:43.368Z,12.53
2018-09-13T06:31:11.787Z,10.95
2018-09-13T06:33:40.218Z,17.23
2018-09-13T06:36:08.746Z,13.75
2018-09-13T06:38:37.194Z,12.28
2018-09-13T06:41:05.671Z,12.58
2018-09-13T06:43:34.151Z,12.75
2018-09-13T06:46:02.582Z,10.50
2018-09-13T06:48:31.071Z,13.13
2018-09-13T06:50:59.520Z,11.83
2018-09-13T06:53:28.168Z,13.98
2018-09-13T06:55:56.709Z,16.62
2018-09-13T06:58:25.138Z,14.15
2018-09-13T07:00:53.627Z,12.65
2018-09-13T07:03:22.078Z,11.22
2018-09-13T07:05:50.500Z,12.80
2018-09-13T07:08:18.937Z,11.97
2018-09-13T07:10:47.410Z,13.05
2018-09-13T07:13:15.847Z,16.07
2018-09-13T07:15:44.342Z,12.73
2018-09-13T07:18:12.868Z,14.47
2018-09-13T07:20:41.306Z,14.70
2018-09-13T07:23:09.782Z,11.10
2018-09-13T07:25:38.201Z,12.53
2018-09-13T07:28:06.673Z,13.62
2018-09-13T07:30:35.172Z,13.22
2018-09-13T07:33:03.558Z,12.50
2018-09-13T07:35:32.032Z,15.30
2018-09-13T07:38:00.546Z,13.85
2018-09-13T07:40:28.911Z,12.70
2018-09-13T07:42:57.419Z,13.98
2018-09-13T07:45:25.775Z,15.83
2018-09-13T07:47:54.138Z,10.80
2018-09-13T07:50:22.551Z,18.12
2018-09-13T07:52:50.962Z,11.50
2018-09-13T07:55:19.449Z,10.32
2018-09-13T07:57:47.858Z,9.95
2018-09-13T08:00:16.346Z,9.63
2018-09-13T08:02:44.803Z,11.57
2018-09-13T08:05:13.392Z,12.47
2018-09-13T08:07:41.742Z,10.05
2018-09-13T08:10:10.159Z,11.28
2018-09-13T08:12:38.538Z,11.78
2018-09-13T08:15:07.003Z,10.88
2018-09-13T08:17:35.555Z,12.37
2018-09-13T08:20:04.136Z,12.93
2018-09-13T08:22:32.873Z,10.70
2018-09-13T08:25:02.050Z,10.45
2018-09-13T08:27:30.634Z,11.65
2018-09-13T08:29:59.222Z,10.82
2018-09-13T08:32:27.646Z,11.97
2018-09-13T08:34:57.347Z,9.75
2018-09-13T08:37:25.647Z,9.73
2018-09-13T08:39:54.399Z,16.87
2018-09-13T08:42:23.013Z,11.33
2018-09-13T08:44:51.743Z,10.85
2018-09-13T08:47:20.207Z,15.08
2018-09-13T08:49:48.712Z,11.00
2018-09-13T08:52:17.216Z,10.43
2018-09-13T08:54:45.621Z,11.55
2018-09-13T08:57:16.915Z,11.60
2018-09-13T08:59:45.416Z,12.03
2018-09-13T09:02:13.863Z,12.65
2018-09-13T09:04:42.226Z,9.65
2018-09-13T09:07:10.743Z,10.40
2018-09-13T09:09:39.116Z,9.58
2018-09-13T09:12:07.554Z,9.60
2018-09-13T09:14:35.955Z,13.00
2018-09-13T09:17:04.454Z,12.73
2018-09-13T09:19:32.905Z,18.98
2018-09-13T09:22:01.441Z,10.93
2018-09-13T09:24:29.847Z,8.20
2018-09-13T09:26:58.302Z,11.40
2018-09-13T09:29:26.823Z,10.30
2018-09-13T09:31:55.176Z,12.60
2018-09-13T09:34:23.643Z,10.60
2018-09-13T09:36:52.720Z,13.32
2018-09-13T09:39:21.177Z,13.35
2018-09-13T09:41:49.610Z,13.53
2018-09-13T09:44:18.070Z,15.80
2018-09-13T09:46:46.453Z,13.15
2018-09-13T09:49:14.898Z,13.80
2018-09-13T09:51:43.337Z,13.95
2018-09-13T09:54:11.762Z,12.33
2018-09-13T09:56:40.247Z,13.93
2018-09-13T09:59:08.667Z,8.93
2018-09-13T10:01:41.342Z,10.28
2018-09-13T10:04:09.753Z,12.73
2018-09-13T10:06:38.316Z,12.68
2018-09-13T10:09:08.157Z,13.60
2018-09-13T10:11:36.590Z,10.15
2018-09-13T10:14:05.078Z,14.47
2018-09-13T10:16:38.892Z,12.18
2018-09-13T10:19:12.798Z,14.25
2018-09-13T10:21:46.722Z,23.85
2018-09-13T10:24:20.616Z,31.73
2018-09-13T10:26:54.537Z,17.23
2018-09-13T10:29:29.204Z,14.90
2018-09-13T10:32:03.152Z,14.33
2018-09-13T10:34:37.051Z,14.25
2018-09-13T10:37:10.827Z,14.70
2018-09-13T10:39:45.002Z,11.95
2018-09-13T10:42:18.983Z,16.45
2018-09-13T10:44:52.826Z,15.28
2018-09-13T10:47:26.535Z,11.25
2018-09-13T10:50:00.275Z,11.08
2018-09-13T10:52:36.793Z,10.55
2018-09-13T10:55:05.407Z,13.53
2018-09-13T10:57:39.356Z,11.33
2018-09-13T11:00:07.963Z,14.13
2018-09-13T11:02:36.456Z,11.95
2018-09-13T11:05:05.038Z,24.63
2018-09-13T11:07:33.466Z,18.60
2018-09-13T11:10:01.877Z,12.43
2018-09-13T11:12:35.346Z,14.20
2018-09-13T11:15:06.109Z,9.33
2018-09-13T11:17:34.570Z,11.70
2018-09-13T11:20:03.050Z,12.80
2018-09-13T11:22:31.477Z,10.90
2018-09-13T11:24:59.922Z,12.43
2018-09-13T11:27:28.402Z,13.53
2018-09-13T11:29:56.830Z,20.97
2018-09-13T11:32:25.485Z,17.02
2018-09-13T11:34:54.109Z,15.43
2018-09-13T11:37:22.620Z,21.87
2018-09-13T11:39:51.200Z,20.65
2018-09-13T11:42:19.562Z,13.45
2018-09-13T11:44:48.016Z,17.48
2018-09-13T11:47:16.454Z,16.23
2018-09-13T11:49:44.978Z,13.53
2018-09-13T11:52:13.522Z,11.40
2018-09-13T11:54:41.962Z,15.05
2018-09-13T11:57:10.564Z,15.80
2018-09-13T11:59:39.090Z,14.63
2018-09-13T12:02:07.538Z,9.68
2018-09-13T12:04:35.990Z,11.73
2018-09-13T12:07:04.449Z,12.40
2018-09-13T12:09:32.894Z,13.00
2018-09-13T12:12:01.324Z,10.88
2018-09-13T12:14:29.913Z,14.03
2018-09-13T12:16:58.335Z,12.75
2018-09-13T12:19:26.958Z,23.52
2018-09-13T12:21:55.375Z,27.25
2018-09-13T12:24:23.867Z,14.03
2018-09-13T12:26:52.288Z,21.05
2018-09-13T12:29:20.661Z,15.20
2018-09-13T12:31:49.039Z,14.58
2018-09-13T12:34:17.511Z,12.25
2018-09-13T12:36:45.902Z,11.05
2018-09-13T12:39:14.310Z,7.85
2018-09-13T12:41:42.958Z,15.48
2018-09-13T12:44:11.816Z,9.60
2018-09-13T12:46:40.335Z,12.15
2018-09-13T12:49:08.868Z,10.50
2018-09-13T12:51:37.286Z,17.52
2018-09-13T12:54:05.771Z,13.68
2018-09-13T12:56:34.189Z,10.08
2018-09-13T12:59:02.602Z,9.50
2018-09-13T13:01:31.032Z,11.30
2018-09-13T13:03:59.487Z,15.75
2018-09-13T13:06:27.905Z,14.10
2018-09-13T13:08:56.427Z,14.00
2018-09-13T13:11:24.814Z,10.48
2018-09-13T13:13:53.311Z,23.77
2018-09-13T13:16:21.698Z,15.90
2018-09-13T13:18:50.158Z,20.75
2018-09-13T13:21:19.741Z,10.88
2018-09-13T13:23:48.212Z,10.70
2018-09-13T13:26:16.807Z,9.90
2018-09-13T13:28:45.415Z,12.33
2018-09-13T13:31:14.056Z,15.28
2018-09-13T13:33:42.518Z,10.85
2018-09-13T13:36:10.983Z,10.00
2018-09-13T13:38:39.544Z,11.25
2018-09-13T13:41:08.089Z,10.55
2018-09-13T13:43:36.705Z,15.15
2018-09-13T13:46:05.202Z,11.90
2018-09-13T13:48:33.640Z,13.78
2018-09-13T13:51:02.188Z,12.15
2018-09-13T13:53:30.615Z,12.13
2018-09-13T13:55:59.194Z,9.38
2018-09-13T13:58:27.783Z,11.22
2018-09-13T14:00:56.367Z,15.53
2018-09-13T14:03:24.960Z,10.58
2018-09-13T14:05:54.642Z,8.38
2018-09-13T14:08:23.103Z,7.53
2018-09-13T14:10:51.508Z,6.95
2018-09-13T14:13:19.957Z,9.08
2018-09-13T14:15:48.423Z,11.35
2018-09-13T14:18:16.858Z,8.90
2018-09-13T14:20:45.377Z,7.12
2018-09-13T14:23:14.614Z,9.40
2018-09-13T14:25:43.072Z,9.95
2018-09-13T14:28:12.550Z,7.60
2018-09-13T14:30:41.008Z,7.62
2018-09-13T14:33:09.431Z,10.45
2018-09-13T14:35:37.949Z,9.10
2018-09-13T14:38:06.355Z,10.65
2018-09-13T14:40:34.910Z,16.05
2018-09-13T14:43:03.515Z,9.58
2018-09-13T14:45:32.048Z,13.28
2018-09-13T14:48:00.597Z,13.13
2018-09-13T14:50:29.078Z,7.90
2018-09-13T14:52:57.617Z,7.28
2018-09-13T14:55:26.246Z,6.92
2018-09-13T14:57:54.910Z,9.50
2018-09-13T15:00:23.443Z,6.92
2018-09-13T15:02:51.930Z,10.48
2018-09-13T15:05:20.492Z,6.00
2018-09-13T15:07:48.986Z,6.78
2018-09-13T15:10:17.569Z,6.28
2018-09-13T15:12:46.141Z,9.33
2018-09-13T15:15:14.550Z,7.05
2018-09-13T15:17:42.986Z,9.68
2018-09-13T15:20:11.426Z,6.62
2018-09-13T15:22:39.879Z,8.60
2018-09-13T15:25:08.354Z,8.05
2018-09-13T15:27:36.812Z,10.18
2018-09-13T15:30:06.167Z,12.10
2018-09-13T15:32:34.563Z,9.53
2018-09-13T15:35:03.120Z,10.80
2018-09-13T15:37:31.614Z,10.58
2018-09-13T15:40:00.138Z,10.45
2018-09-13T15:42:28.809Z,10.60
2018-09-13T15:44:57.429Z,10.35
2018-09-13T15:47:25.851Z,11.90
2018-09-13T15:49:54.652Z,9.08
2018-09-13T15:52:23.309Z,11.85
2018-09-13T15:54:51.820Z,11.08
2018-09-13T15:57:20.312Z,31.60
2018-09-13T15:59:48.773Z,19.65
2018-09-13T16:02:17.328Z,22.60
2018-09-13T16:04:45.779Z,15.10
2018-09-13T16:07:14.262Z,35.05
2018-09-13T16:09:42.739Z,28.40
2018-09-13T16:12:11.295Z,12.00
2018-09-13T16:14:39.774Z,15.15
2018-09-13T16:17:08.366Z,15.85
2018-09-13T16:19:36.874Z,14.58
2018-09-13T16:22:05.346Z,15.00
2018-09-13T16:24:33.890Z,14.03
2018-09-13T16:27:02.306Z,17.27
2018-09-13T16:29:30.767Z,14.05
2018-09-13T16:31:59.291Z,14.00
2018-09-13T16:34:27.711Z,20.32
2018-09-13T16:37:04.008Z,19.30
2018-09-13T16:40:35.521Z,18.65
2018-09-13T16:43:09.329Z,40.45
2018-09-13T16:45:37.808Z,41.20
2018-09-13T16:48:06.571Z,43.52
2018-09-13T16:50:35.230Z,28.67
2018-09-13T16:53:03.802Z,25.32
2018-09-13T16:55:32.266Z,32.40
2018-09-13T16:58:00.657Z,41.50
2018-09-13T17:00:29.471Z,45.63
2018-09-13T17:02:57.957Z,37.48
2018-09-13T17:05:26.470Z,37.48
2018-09-13T17:07:54.926Z,19.95
2018-09-13T17:10:23.487Z,19.42
2018-09-13T17:12:51.906Z,19.98
2018-09-13T17:15:20.407Z,25.45
2018-09-13T17:17:48.914Z,18.07
2018-09-13T17:20:17.475Z,19.87
2018-09-13T17:22:46.007Z,34.35
2018-09-13T17:25:14.426Z,20.25
2018-09-13T17:27:42.966Z,39.57
2018-09-13T17:30:11.473Z,60.00
2018-09-13T17:32:39.934Z,32.13
2018-09-13T17:35:08.462Z,60.60
2018-09-13T17:37:36.898Z,22.27
2018-09-13T17:40:05.579Z,24.63
2018-09-13T17:42:34.012Z,30.00
2018-09-13T17:45:02.446Z,22.48
2018-09-13T17:47:31.123Z,21.10
2018-09-13T17:49:59.599Z,19.93
2018-09-13T17:52:28.039Z,40.00
2018-09-13T17:54:56.465Z,35.15
2018-09-13T17:57:24.966Z,26.83
2018-09-13T17:59:53.468Z,32.50
2018-09-13T18:02:22.012Z,18.95
2018-09-13T18:04:50.451Z,25.57
2018-09-13T18:07:18.892Z,22.22
2018-09-13T18:09:47.392Z,21.87
2018-09-13T18:12:15.881Z,23.03
2018-09-13T18:14:44.331Z,17.43
2018-09-13T18:17:12.900Z,20.32
2018-09-13T18:19:41.483Z,17.32
2018-09-13T18:22:09.943Z,17.92
2018-09-13T18:24:38.380Z,22.37
2018-09-13T18:27:06.965Z,22.93
2018-09-13T18:29:35.538Z,23.60
2018-09-13T18:32:04.561Z,25.05
2018-09-13T18:34:32.995Z,21.80
2018-09-13T18:37:01.518Z,21.43
2018-09-13T18:39:30.055Z,28.77
2018-09-13T18:41:58.667Z,23.77
2018-09-13T18:44:27.694Z,20.32
2018-09-13T18:46:56.122Z,21.07
2018-09-13T18:49:24.564Z,19.23
2018-09-13T18:51:53.037Z,19.07
2018-09-13T18:54:21.629Z,19.87
2018-09-13T18:56:50.060Z,24.27
2018-09-13T18:59:18.523Z,22.90
2018-09-13T19:01:46.973Z,20.95
2018-09-13T19:04:15.401Z,22.45
2018-09-13T19:06:43.965Z,19.60
2018-09-13T19:09:12.524Z,19.02
2018-09-13T19:11:41.127Z,19.57
2018-09-13T19:14:09.602Z,24.55
2018-09-13T19:16:38.115Z,23.53
2018-09-13T19:19:06.584Z,22.52
2018-09-13T19:21:35.014Z,25.00
2018-09-13T19:24:03.500Z,26.20
2018-09-13T19:26:31.925Z,23.87
2018-09-13T19:29:00.326Z,19.57
2018-09-13T19:31:28.748Z,21.77
2018-09-13T19:33:57.250Z,22.10
2018-09-13T19:36:25.707Z,19.65
2018-09-13T19:38:54.136Z,21.75
2018-09-13T19:41:22.735Z,24.07
2018-09-13T19:43:51.187Z,22.83
2018-09-13T19:46:19.966Z,21.30
2018-09-13T19:48:48.382Z,20.90
2018-09-13T19:51:17.038Z,21.30
2018-09-13T19:53:46.557Z,20.57
2018-09-13T19:56:14.957Z,18.17
2018-09-13T19:58:43.513Z,19.67
2018-09-13T20:01:11.946Z,18.48
2018-09-13T20:03:40.391Z,21.03
2018-09-13T20:06:08.951Z,19.93
2018-09-13T20:08:37.352Z,20.37
2018-09-13T20:11:05.810Z,19.40
2018-09-13T20:13:34.296Z,23.27
2018-09-13T20:16:02.686Z,19.15
2018-09-13T20:18:31.227Z,18.67
2018-09-13T20:21:00.018Z,19.42
2018-09-13T20:23:28.782Z,17.07
2018-09-13T20:25:57.163Z,19.17
2018-09-13T20:28:25.678Z,19.23
2018-09-13T20:30:54.038Z,16.07
2018-09-13T20:33:22.461Z,18.97
2018-09-13T20:35:50.906Z,16.93
2018-09-13T20:38:19.387Z,18.57
2018-09-13T20:40:48.037Z,15.53
2018-09-13T20:43:16.640Z,17.20
2018-09-13T20:45:45.157Z,15.93
2018-09-13T20:48:13.889Z,18.87
2018-09-13T20:50:42.267Z,18.60
2018-09-13T20:53:10.930Z,16.57
2018-09-13T20:55:39.430Z,18.40
2018-09-13T20:58:07.859Z,18.20
2018-09-13T21:00:36.316Z,19.13
2018-09-13T21:03:04.720Z,19.50
2018-09-13T21:05:33.247Z,17.30
2018-09-13T21:08:02.262Z,18.17
2018-09-13T21:10:30.693Z,18.17
2018-09-13T21:12:59.153Z,19.77
2018-09-13T21:15:27.598Z,19.00
2018-09-13T21:17:56.027Z,19.63
2018-09-13T21:20:24.459Z,20.30
2018-09-13T21:22:53.244Z,19.37
2018-09-13T21:25:21.624Z,20.67
2018-09-13T21:27:50.058Z,28.13
2018-09-13T21:30:18.478Z,21.13
2018-09-13T21:32:46.884Z,20.00
2018-09-13T21:35:15.300Z,20.10
2018-09-13T21:37:43.728Z,21.70
2018-09-13T21:40:12.197Z,21.70
2018-09-13T21:42:40.657Z,22.17
2018-09-13T21:45:09.075Z,20.87
2018-09-13T21:47:37.553Z,23.50
2018-09-13T21:50:06.151Z,24.20
2018-09-13T21:52:34.615Z,22.70
2018-09-13T21:55:03.580Z,21.57
2018-09-13T21:57:32.552Z,24.23
2018-09-13T22:00:00.951Z,22.73
2018-09-13T22:02:29.430Z,21.07
2018-09-13T22:04:57.789Z,23.30
2018-09-13T22:07:26.175Z,25.70
2018-09-13T22:09:54.543Z,20.77
2018-09-13T22:12:22.918Z,19.47
2018-09-13T22:14:51.336Z,19.07
2018-09-13T22:17:21.010Z,21.30
2018-09-13T22:19:49.515Z,19.93
2018-09-13T22:22:19.107Z,19.23
2018-09-13T22:24:47.660Z,22.03
2018-09-13T22:27:17.065Z,21.47
2018-09-13T22:29:45.675Z,19.00
2018-09-13T22:32:14.090Z,17.63
2018-09-13T22:34:42.527Z,18.97
2018-09-13T22:37:10.934Z,23.47
2018-09-13T22:39:39.559Z,19.40
2018-09-13T22:42:08.281Z,17.20
2018-09-13T22:44:40.402Z,18.50
2018-09-13T22:47:09.517Z,15.57
2018-09-13T22:49:38.051Z,14.90
2018-09-13T22:52:07.022Z,17.37
2018-09-13T22:54:35.507Z,18.63
2018-09-13T22:57:04.076Z,17.40
2018-09-13T22:59:32.513Z,16.30
2018-09-13T23:02:01.047Z,14.73
2018-09-13T23:04:29.463Z,16.13
2018-09-13T23:06:57.877Z,15.07
2018-09-13T23:09:26.292Z,13.93
2018-09-13T23:11:54.673Z,14.63
2018-09-13T23:14:23.204Z,13.67
2018-09-13T23:16:51.626Z,13.50
2018-09-13T23:19:20.022Z,12.20
2018-09-13T23:21:48.521Z,12.13
2018-09-13T23:24:16.918Z,13.07
2018-09-13T23:26:45.366Z,11.97
2018-09-13T23:29:13.820Z,13.90
2018-09-13T23:31:42.230Z,11.53
2018-09-13T23:34:10.687Z,12.57
2018-09-13T23:36:39.124Z,12.70
2018-09-13T23:39:09.204Z,12.60
2018-09-13T23:41:39.544Z,11.43
2018-09-13T23:44:08.115Z,11.20
2018-09-13T23:46:37.084Z,11.23
2018-09-13T23:49:05.551Z,9.70
2018-09-13T23:51:34.292Z,10.67
2018-09-13T23:54:02.823Z,10.57
2018-09-13T23:56:31.223Z,9.13
2018-09-13T23:58:59.651Z,11.17
